Time;durP1;ratioP1;P1;durP2;ratioP2;P2;SDS_P1;SDS_P2;PMS_P1;PMS_P2;Temp;Humidity;BMP_temperature;BMP_pressure;BME280_temperature;BME280_humidity;BME280_pressure;Samples;Min_cycle;Max_cycle;Signal;HPM_P1;HPM_P2
2022/01/26 00:00:00;;;;;;;;;10.00;7.00;;;;;2.49;84.55;101484.06;5123177;27;8849;-62
2022/01/26 00:07:58;;;;;;;;;2.20;1.00;;;;;2.48;84.39;101485.81;5122091;27;10101;-63
2022/01/26 00:10:26;;;;;;;;;9.60;6.80;;;;;2.48;84.53;101470.03;5124297;27;9581;-63
2022/01/26 00:12:53;;;;;;;;;12.80;9.60;;;;;2.48;84.65;101475.28;5123857;27;9544;-64
2022/01/26 00:15:21;;;;;;;;;9.00;9.00;;;;;2.50;84.16;101484.00;5123801;27;9529;-64
2022/01/26 00:17:50;;;;;;;;;7.80;7.00;;;;;2.51;84.47;101480.47;5124100;27;8864;-63
2022/01/26 00:20:23;;;;;;;;;9.60;9.20;;;;;2.55;84.12;101481.25;5124093;27;8984;-61
2022/01/26 00:23:06;;;;;;;;;14.20;11.60;;;;;2.57;84.37;101487.38;5121974;27;8849;-64
2022/01/26 00:25:42;;;;;;;;;12.00;12.00;;;;;2.55;84.72;101484.78;5122434;27;8971;-64
2022/01/26 00:39:25;;;;;;;;;14.40;12.40;;;;;2.75;83.36;101487.81;5099035;28;8852;-64
2022/01/26 00:41:56;;;;;;;;;12.40;9.80;;;;;2.74;84.28;101479.97;5098442;28;9283;-64
2022/01/26 00:44:32;;;;;;;;;3.00;2.20;;;;;2.73;83.22;101486.97;5098851;28;9485;-64
2022/01/26 00:47:00;;;;;;;;;10.00;7.60;;;;;2.73;83.84;101491.38;5101084;28;8875;-64
2022/01/26 00:49:27;;;;;;;;;8.40;6.60;;;;;2.73;83.54;101486.97;5098324;28;8941;-64
2022/01/26 00:51:55;;;;;;;;;5.60;4.40;;;;;2.72;83.91;101481.78;5100142;28;8828;-64
2022/01/26 00:54:23;;;;;;;;;13.80;12.00;;;;;2.70;84.05;101476.53;5099865;28;8891;-63
2022/01/26 00:56:51;;;;;;;;;2.40;2.20;;;;;2.68;83.87;101478.34;5099208;28;8984;-63
2022/01/26 00:59:19;;;;;;;;;6.60;5.60;;;;;2.68;83.95;101487.97;5098928;28;8871;-64
2022/01/26 01:01:47;;;;;;;;;14.80;12.80;;;;;2.68;84.29;101478.34;5099723;28;8870;-64
2022/01/26 01:04:15;;;;;;;;;15.80;12.00;;;;;2.68;83.91;101472.22;5100449;28;8939;-61
2022/01/26 01:06:47;;;;;;;;;10.00;8.20;;;;;2.69;84.21;101466.03;5100058;28;9389;-62
2022/01/26 01:09:16;;;;;;;;;12.00;9.60;;;;;2.70;84.34;101466.03;5101224;28;8893;-62
2022/01/26 01:11:44;;;;;;;;;12.20;12.20;;;;;2.71;84.22;101462.47;5102108;28;8959;-64
2022/01/26 01:14:11;;;;;;;;;10.00;9.60;;;;;2.72;84.09;101464.22;5102301;28;8848;-63
2022/01/26 01:16:39;;;;;;;;;9.40;7.80;;;;;2.70;84.08;101455.50;5099761;28;8863;-64
2022/01/26 01:19:12;;;;;;;;;10.40;8.20;;;;;2.69;84.37;101461.66;5100590;28;8929;-64
2022/01/26 01:24:58;;;;;;;;;10.00;9.20;;;;;2.63;83.87;101453.91;5099389;28;8851;-61
2022/01/26 01:30:20;;;;;;;;;11.40;10.40;;;;;2.57;83.86;101458.47;5098029;28;8886;-64
2022/01/26 01:32:53;;;;;;;;;14.20;9.80;;;;;2.54;83.66;101448.00;5098844;28;8885;-63
2022/01/26 01:35:21;;;;;;;;;3.00;2.60;;;;;2.52;84.15;101461.19;5099290;28;9135;-63
2022/01/26 01:37:50;;;;;;;;;21.00;18.80;;;;;2.51;84.68;101463.84;5097557;28;8846;-63
2022/01/26 01:40:17;;;;;;;;;14.20;12.80;;;;;2.53;84.17;101462.03;5098812;28;8973;-63
2022/01/26 01:42:45;;;;;;;;;20.20;17.20;;;;;2.51;84.79;101459.44;5086082;28;8846;-60
2022/01/26 01:45:12;;;;;;;;;10.40;9.20;;;;;2.55;84.68;101463.75;5084785;28;8841;-61
2022/01/26 01:47:40;;;;;;;;;8.00;7.20;;;;;2.55;84.03;101455.84;5085533;28;8889;-63
2022/01/26 01:50:11;;;;;;;;;12.40;10.80;;;;;2.57;83.96;101459.31;5085148;28;9143;-61
2022/01/26 01:52:39;;;;;;;;;16.00;14.20;;;;;2.59;84.57;101460.13;5085672;28;8834;-64
2022/01/26 01:55:07;;;;;;;;;7.00;6.80;;;;;2.59;84.30;101459.28;5084719;28;8849;-61
2022/01/26 01:57:34;;;;;;;;;9.60;8.60;;;;;2.58;84.33;101466.28;5087054;28;9349;-62
2022/01/26 02:00:02;;;;;;;;;14.40;13.80;;;;;2.58;84.41;101457.56;5087529;28;8873;-62
2022/01/26 02:02:30;;;;;;;;;13.80;12.40;;;;;2.58;83.50;101455.78;5084825;28;8862;-63
2022/01/26 02:04:59;;;;;;;;;15.40;13.00;;;;;2.58;84.13;101455.78;5084089;28;8931;-63
2022/01/26 02:07:27;;;;;;;;;19.00;17.60;;;;;2.59;83.91;101452.25;5084184;28;9014;-61
2022/01/26 02:09:54;;;;;;;;;22.00;18.20;;;;;2.59;84.07;101441.72;5083568;28;9515;-63
2022/01/26 02:12:25;;;;;;;;;17.20;13.80;;;;;2.60;84.19;101446.09;5084726;28;8842;-61
2022/01/26 02:15:03;;;;;;;;;7.20;4.60;;;;;2.60;83.92;101437.34;5084567;28;8849;-61
2022/01/26 02:17:50;;;;;;;;;17.60;13.40;;;;;2.60;84.31;101432.09;5084871;28;9190;-63
2022/01/26 02:20:47;;;;;;;;;12.60;11.80;;;;;2.60;84.04;101443.47;5084305;28;8838;-64
2022/01/26 02:51:25;;;;;;;;;12.00;10.80;;;;;2.68;83.93;101415.25;5088672;28;8846;-64
2022/01/26 02:54:22;;;;;;;;;14.00;11.80;;;;;2.72;83.89;101411.63;5086468;28;8858;-64
2022/01/26 02:57:03;;;;;;;;;13.00;12.60;;;;;2.73;84.21;101413.34;5087447;28;8846;-63
2022/01/26 03:02:34;;;;;;;;;37.00;30.60;;;;;2.78;83.95;101406.22;5137485;27;13419;-64
2022/01/26 03:05:03;;;;;;;;;20.80;20.20;;;;;2.85;83.89;101406.91;5124975;27;8868;-64
2022/01/26 03:07:41;;;;;;;;;14.20;9.80;;;;;2.92;83.42;101405.88;5125841;27;9502;-64
2022/01/26 03:10:16;;;;;;;;;22.60;16.80;;;;;2.93;83.48;101392.69;5110241;27;8879;-63
2022/01/26 03:12:49;;;;;;;;;16.60;14.20;;;;;2.93;82.97;101395.31;5103763;28;8962;-64
2022/01/26 03:15:21;;;;;;;;;21.00;19.40;;;;;2.92;83.11;101383.06;5103541;28;8864;-63
2022/01/26 03:18:12;;;;;;;;;10.80;10.80;;;;;2.91;83.18;101380.47;5104938;28;8847;-63
2022/01/26 03:20:41;;;;;;;;;12.60;10.80;;;;;2.89;83.28;101388.38;5119914;27;8845;-64
2022/01/26 03:28:44;;;;;;;;;7.80;4.20;;;;;2.83;83.58;101359.63;5124808;27;9486;-64
2022/01/26 03:34:00;;;;;;;;;9.60;7.00;;;;;2.83;83.89;101351.75;5082727;27;8857;-65
2022/01/26 03:36:31;;;;;;;;;17.60;13.00;;;;;2.82;83.80;101344.75;5125527;27;8979;-63
2022/01/26 03:39:07;;;;;;;;;13.00;11.60;;;;;2.81;84.00;101348.28;5123352;27;8849;-64
2022/01/26 03:41:39;;;;;;;;;19.00;17.80;;;;;2.80;83.71;101351.81;5105115;28;8852;-63
2022/01/26 03:44:08;;;;;;;;;16.20;9.80;;;;;2.81;84.00;101373.72;5103249;28;8847;-63
2022/01/26 03:46:35;;;;;;;;;21.60;16.00;;;;;2.79;83.54;101371.13;5104509;28;8851;-63
2022/01/26 03:49:03;;;;;;;;;16.20;10.40;;;;;2.81;83.62;101353.53;5105453;27;9097;-64
2022/01/26 03:51:31;;;;;;;;;15.60;14.60;;;;;2.82;83.39;101343.88;5121989;27;8833;-64
2022/01/26 03:53:59;;;;;;;;;22.00;16.80;;;;;2.83;83.47;101345.63;5123864;27;8861;-64
2022/01/26 03:56:26;;;;;;;;;18.00;11.60;;;;;2.83;83.82;101350.88;5124930;27;8849;-64
2022/01/26 03:58:54;;;;;;;;;23.20;18.80;;;;;2.83;83.41;101342.97;5122976;27;8852;-64
2022/01/26 04:01:22;;;;;;;;;24.40;22.20;;;;;2.83;83.40;101343.84;5102704;28;8853;-64
2022/01/26 04:03:50;;;;;;;;;21.80;16.80;;;;;2.84;84.03;101347.34;5104373;28;8881;-68
2022/01/26 04:06:18;;;;;;;;;20.80;18.60;;;;;2.83;83.86;101356.13;5105174;28;8866;-63
2022/01/26 04:08:46;;;;;;;;;13.80;11.60;;;;;2.83;83.34;101351.75;5104478;28;9000;-63
2022/01/26 04:14:02;;;;;;;;;19.20;15.00;;;;;2.83;84.05;101341.22;5066524;28;8949;-63
2022/01/26 04:16:30;;;;;;;;;17.40;13.20;;;;;2.81;83.63;101345.63;5068853;28;8871;-64
2022/01/26 04:18:58;;;;;;;;;18.20;14.00;;;;;2.81;83.46;101345.63;5074079;28;8851;-63
2022/01/26 04:21:34;;;;;;;;;16.40;14.80;;;;;2.79;83.55;101342.19;5111531;28;8864;-60
2022/01/26 04:24:07;;;;;;;;;16.40;12.40;;;;;2.79;84.12;101341.34;5111569;28;8850;-63
2022/01/26 04:26:42;;;;;;;;;18.20;16.80;;;;;2.79;83.27;101339.56;5110973;28;8850;-62
2022/01/26 04:29:15;;;;;;;;;22.20;17.40;;;;;2.79;83.51;101363.22;5108010;28;8844;-63
2022/01/26 04:31:42;;;;;;;;;7.60;5.60;;;;;2.81;83.60;101364.03;5089923;28;8848;-60
2022/01/26 04:34:10;;;;;;;;;5.20;5.20;;;;;2.82;83.65;101370.19;5089381;28;8838;-63
2022/01/26 04:36:43;;;;;;;;;22.40;17.60;;;;;2.83;83.44;101377.16;5087613;28;8849;-63
2022/01/26 04:39:16;;;;;;;;;18.60;17.00;;;;;2.83;83.67;101375.41;5089931;28;8944;-61
2022/01/26 04:41:49;;;;;;;;;15.80;13.40;;;;;2.81;83.84;101374.56;5108565;28;8844;-64
2022/01/26 04:44:21;;;;;;;;;20.20;19.80;;;;;2.82;83.30;101376.31;5109588;28;8852;-64
2022/01/26 04:46:49;;;;;;;;;10.60;10.60;;;;;2.81;83.28;101379.81;5108517;28;8856;-63
2022/01/26 04:49:17;;;;;;;;;19.40;18.00;;;;;2.81;83.83;101382.47;5104948;28;8826;-64
2022/01/26 04:51:44;;;;;;;;;12.40;11.20;;;;;2.80;83.98;101390.41;5088725;28;8898;-64
2022/01/26 04:54:12;;;;;;;;;15.60;15.60;;;;;2.80;83.63;101383.38;5097083;28;8874;-64
2022/01/26 04:56:39;;;;;;;;;18.00;15.00;;;;;2.79;83.40;101381.63;5109963;28;8864;-62
2022/01/26 04:59:07;;;;;;;;;16.40;14.20;;;;;2.79;83.75;101389.53;5109124;28;8974;-64
2022/01/26 05:01:35;;;;;;;;;15.20;13.00;;;;;2.78;83.88;101387.81;5109976;28;8974;-64
2022/01/26 05:04:03;;;;;;;;;19.20;16.00;;;;;2.79;83.84;101388.69;5102208;28;8834;-63
2022/01/26 05:06:32;;;;;;;;;18.40;15.20;;;;;2.79;83.83;101386.06;5089284;28;8888;-66
2022/01/26 05:08:59;;;;;;;;;16.20;12.20;;;;;2.78;84.03;101384.28;5089681;28;8860;-64
2022/01/26 05:11:33;;;;;;;;;18.00;16.40;;;;;2.78;83.92;101377.28;5089363;28;8838;-64
2022/01/26 05:14:01;;;;;;;;;21.00;19.00;;;;;2.78;83.89;101374.66;5096377;28;8863;-69
2022/01/26 05:16:29;;;;;;;;;10.20;9.00;;;;;2.77;83.78;101370.31;5108612;28;8828;-63
2022/01/26 05:18:57;;;;;;;;;19.60;16.80;;;;;2.76;83.93;101368.59;5109418;28;9786;-64
2022/01/26 05:21:24;;;;;;;;;19.00;15.20;;;;;2.75;83.49;101374.75;5109918;28;9717;-64
2022/01/26 05:23:52;;;;;;;;;19.40;18.00;;;;;2.77;84.13;101380.81;5090482;28;8853;-62
2022/01/26 05:26:21;;;;;;;;;18.00;15.80;;;;;2.77;83.35;101383.47;5099833;28;8953;-63
2022/01/26 05:28:49;;;;;;;;;13.00;13.00;;;;;2.78;83.59;101394.81;5105740;28;8848;-63
2022/01/26 05:31:17;;;;;;;;;23.20;19.00;;;;;2.77;83.36;101415.00;5109910;28;8860;-64
2022/01/26 05:33:44;;;;;;;;;12.80;12.20;;;;;2.75;83.72;101421.19;5109352;28;8844;-64
2022/01/26 05:36:12;;;;;;;;;7.40;6.40;;;;;2.73;83.88;101415.97;5109332;28;8848;-67
2022/01/26 05:38:40;;;;;;;;;24.20;19.60;;;;;2.71;83.64;101415.16;5094529;28;8846;-64
2022/01/26 05:41:08;;;;;;;;;22.00;19.20;;;;;2.71;83.83;101424.78;5088136;28;8854;-64
2022/01/26 05:43:35;;;;;;;;;11.80;11.80;;;;;2.70;83.51;101423.06;5088034;28;8850;-64
2022/01/26 05:46:07;;;;;;;;;19.20;17.80;;;;;2.68;83.86;101407.34;5088938;28;8837;-64
2022/01/26 05:48:38;;;;;;;;;15.80;15.40;;;;;2.68;83.51;101402.09;5098300;28;8859;-65
2022/01/26 05:51:07;;;;;;;;;13.20;9.20;;;;;2.68;83.91;101395.97;5105807;28;8848;-64
2022/01/26 05:53:35;;;;;;;;;24.00;21.40;;;;;2.66;83.92;101403.03;5106042;28;9500;-64
2022/01/26 05:56:02;;;;;;;;;31.40;24.80;;;;;2.65;83.96;101396.88;5105523;28;8870;-62
2022/01/26 05:58:30;;;;;;;;;19.60;18.00;;;;;2.66;83.28;101395.97;5095934;28;8870;-63
2022/01/26 06:00:59;;;;;;;;;24.20;22.80;;;;;2.67;83.77;101395.13;5082953;28;8924;-64
2022/01/26 06:03:27;;;;;;;;;18.20;13.80;;;;;2.69;84.01;101393.31;5100283;28;9706;-60
2022/01/26 06:05:55;;;;;;;;;23.80;19.00;;;;;2.69;83.68;101387.16;5106021;28;8844;-63
2022/01/26 06:08:23;;;;;;;;;21.00;18.20;;;;;2.70;83.31;101379.25;5106142;28;9598;-63
2022/01/26 06:10:51;;;;;;;;;17.80;14.40;;;;;2.70;83.34;101371.34;5100804;28;8851;-63
2022/01/26 06:13:19;;;;;;;;;27.00;20.00;;;;;2.70;83.17;101365.22;5100963;28;8840;-63
2022/01/26 06:15:47;;;;;;;;;25.20;23.20;;;;;2.68;83.83;101354.75;5100631;28;8886;-63
2022/01/26 06:18:15;;;;;;;;;30.80;26.00;;;;;2.68;83.26;101344.25;5101088;28;8891;-61
2022/01/26 06:20:43;;;;;;;;;28.20;23.80;;;;;2.68;83.02;101335.47;5099556;28;8850;-62
2022/01/26 06:23:10;;;;;;;;;21.00;13.60;;;;;2.67;83.63;101328.50;5096251;28;8852;-63
2022/01/26 06:25:38;;;;;;;;;24.00;20.20;;;;;2.66;83.64;101337.28;5096377;28;8875;-63
2022/01/26 06:28:11;;;;;;;;;33.40;31.40;;;;;2.65;83.56;101344.31;5097223;28;8855;-63
2022/01/26 06:30:38;;;;;;;;;23.00;20.00;;;;;2.65;83.35;101346.94;5096068;28;8867;-64
2022/01/26 06:33:07;;;;;;;;;38.80;31.80;;;;;2.65;83.35;101361.88;5095697;28;8852;-64
2022/01/26 06:35:35;;;;;;;;;30.00;23.00;;;;;2.66;83.33;101374.94;5097541;28;8844;-63
2022/01/26 06:38:03;;;;;;;;;26.80;21.00;;;;;2.66;83.14;101367.06;5095759;28;9210;-61
2022/01/26 06:40:31;;;;;;;;;10.00;6.40;;;;;2.67;83.18;101354.78;5095919;28;8851;-62
2022/01/26 06:43:02;;;;;;;;;27.80;22.60;;;;;2.67;83.46;101370.56;5094912;28;8859;-62
2022/01/26 06:45:33;;;;;;;;;36.20;30.40;;;;;2.68;83.28;101373.16;5094542;28;8848;-64
2022/01/26 06:48:25;;;;;;;;;27.00;23.00;;;;;2.69;83.46;101376.66;5092635;28;9170;-64
2022/01/26 06:50:52;;;;;;;;;27.60;22.00;;;;;2.70;83.27;101371.34;5094739;28;8843;-64
2022/01/26 06:53:19;;;;;;;;;34.00;27.20;;;;;2.72;83.16;101379.22;5094982;28;8854;-64
2022/01/26 06:55:47;;;;;;;;;18.80;12.60;;;;;2.72;83.22;101368.69;5092777;28;9006;-62
2022/01/26 06:58:15;;;;;;;;;26.80;20.60;;;;;2.74;83.17;101366.88;5093289;28;9101;-63
2022/01/26 07:00:43;;;;;;;;;32.40;26.20;;;;;2.74;83.09;101367.72;5090311;28;8848;-63
2022/01/26 07:03:10;;;;;;;;;30.20;22.80;;;;;2.73;83.29;101357.28;5090832;28;8867;-62
2022/01/26 07:05:39;;;;;;;;;29.00;21.40;;;;;2.73;83.33;101362.53;5092487;28;8848;-62
2022/01/26 07:08:06;;;;;;;;;23.80;19.60;;;;;2.74;83.54;101351.09;5093615;28;8840;-62
2022/01/26 07:10:37;;;;;;;;;22.20;20.40;;;;;2.73;83.52;101330.97;5094799;28;8932;-62
2022/01/26 07:13:05;;;;;;;;;18.40;13.40;;;;;2.72;83.81;101337.16;5096256;28;8878;-64
2022/01/26 07:23:57;;;;;;;;;15.00;14.20;;;;;2.70;83.37;101360.84;5057647;28;8925;-61
2022/01/26 07:26:28;;;;;;;;;34.40;28.00;;;;;2.72;83.51;101373.97;5093368;28;8840;-61
2022/01/26 07:28:56;;;;;;;;;25.00;22.00;;;;;2.72;83.02;101371.34;5091712;28;8844;-64
2022/01/26 07:31:24;;;;;;;;;21.40;20.40;;;;;2.72;82.90;101372.19;5093996;28;8854;-62
2022/01/26 07:33:54;;;;;;;;;13.80;13.00;;;;;2.73;83.11;101381.78;5092141;28;8866;-61
2022/01/26 07:36:22;;;;;;;;;21.80;15.40;;;;;2.74;83.12;101378.25;5091783;28;9602;-61
2022/01/26 07:38:51;;;;;;;;;28.20;23.60;;;;;2.77;83.34;101366.78;5091791;28;8859;-61
2022/01/26 07:41:19;;;;;;;;;21.80;21.20;;;;;2.76;83.19;101352.81;5094321;28;8844;-62
2022/01/26 07:43:48;;;;;;;;;29.00;24.60;;;;;2.75;83.11;101364.22;5092337;28;8916;-63
2022/01/26 07:46:17;;;;;;;;;18.00;15.40;;;;;2.75;83.48;101379.13;5092525;28;8835;-61
2022/01/26 07:48:45;;;;;;;;;26.00;15.80;;;;;2.75;83.40;101377.38;5096671;28;8919;-62
2022/01/26 07:51:13;;;;;;;;;25.20;19.60;;;;;2.75;83.29;101377.38;5096639;28;8859;-63
2022/01/26 07:53:40;;;;;;;;;25.80;20.60;;;;;2.75;83.67;101372.13;5095385;28;8860;-63
2022/01/26 07:56:08;;;;;;;;;31.60;27.00;;;;;2.75;82.95;101380.00;5096164;28;8839;-64
2022/01/26 07:58:36;;;;;;;;;15.80;12.80;;;;;2.74;83.53;101380.88;5094564;28;8856;-62
2022/01/26 08:01:03;;;;;;;;;38.40;30.80;;;;;2.74;83.21;101383.50;5093241;28;8860;-64
2022/01/26 08:03:33;;;;;;;;;15.80;12.00;;;;;2.73;82.98;101387.03;5096342;28;9516;-63
2022/01/26 08:06:02;;;;;;;;;27.40;19.60;;;;;2.73;83.60;101399.34;5095298;28;8862;-62
2022/01/26 08:08:29;;;;;;;;;31.00;24.20;;;;;2.72;83.50;101398.47;5096218;28;9167;-64
2022/01/26 08:10:57;;;;;;;;;33.40;27.40;;;;;2.70;83.04;101402.91;5093420;28;8839;-64
2022/01/26 08:13:25;;;;;;;;;30.80;28.00;;;;;2.69;83.57;101380.16;5093074;28;8840;-64
2022/01/26 08:15:56;;;;;;;;;26.60;21.60;;;;;2.69;83.79;101368.75;5096442;28;8847;-63
2022/01/26 08:18:25;;;;;;;;;17.80;14.00;;;;;2.67;83.42;101371.44;5094725;28;8932;-64
2022/01/26 08:20:53;;;;;;;;;29.20;24.00;;;;;2.66;83.28;101374.94;5096888;28;8848;-64
2022/01/26 08:23:22;;;;;;;;;20.80;20.40;;;;;2.66;83.68;101385.47;5096312;28;8871;-63
2022/01/26 08:25:51;;;;;;;;;24.80;18.60;;;;;2.68;83.21;101398.59;5098883;28;8877;-63
2022/01/26 08:28:24;;;;;;;;;17.60;16.20;;;;;2.68;83.19;101403.84;5097206;28;8859;-63
2022/01/26 08:30:51;;;;;;;;;36.40;26.40;;;;;2.70;83.06;101409.91;5094049;28;9194;-63
2022/01/26 08:33:19;;;;;;;;;21.40;20.60;;;;;2.71;83.18;101414.28;5093799;28;8854;-62
2022/01/26 08:35:47;;;;;;;;;27.40;22.40;;;;;2.69;82.99;101401.19;5097507;28;8970;-63
2022/01/26 08:38:15;;;;;;;;;14.40;11.40;;;;;2.68;83.33;101407.34;5095051;28;9158;-63
2022/01/26 08:40:43;;;;;;;;;15.20;9.60;;;;;2.69;83.10;101410.81;5091126;28;8878;-63
2022/01/26 08:43:11;;;;;;;;;26.20;20.20;;;;;2.68;83.04;101409.09;5095055;28;8879;-61
2022/01/26 08:45:39;;;;;;;;;15.00;12.00;;;;;2.67;83.18;101418.78;5093357;28;8863;-61
2022/01/26 08:48:06;;;;;;;;;18.00;15.60;;;;;2.67;82.83;101437.19;5096335;28;8925;-64
2022/01/26 08:50:34;;;;;;;;;20.20;16.20;;;;;2.67;82.77;101437.19;5096304;28;8924;-63
2022/01/26 08:53:02;;;;;;;;;27.40;23.20;;;;;2.68;83.30;101446.78;5094157;28;8848;-62
2022/01/26 08:55:30;;;;;;;;;29.40;21.60;;;;;2.72;83.22;101448.44;5094772;28;8974;-64
2022/01/26 08:57:58;;;;;;;;;35.00;26.80;;;;;2.75;83.52;101445.75;5094273;28;8851;-64
2022/01/26 09:00:25;;;;;;;;;25.00;22.00;;;;;2.76;83.13;101428.19;5090544;28;8855;-63
2022/01/26 09:02:55;;;;;;;;;29.60;22.60;;;;;2.78;83.06;101429.88;5090880;28;8872;-62
2022/01/26 09:05:23;;;;;;;;;19.00;16.20;;;;;2.79;83.04;101430.75;5092395;28;8879;-63
2022/01/26 09:07:55;;;;;;;;;19.20;14.00;;;;;2.79;82.70;101426.34;5094962;28;8863;-61
2022/01/26 09:10:26;;;;;;;;;23.20;15.80;;;;;2.81;82.84;101437.69;5094508;28;8839;-64
2022/01/26 09:12:54;;;;;;;;;23.00;20.60;;;;;2.81;83.23;101437.69;5094189;28;9148;-64
2022/01/26 09:15:27;;;;;;;;;37.80;30.40;;;;;2.82;82.93;101439.44;5094259;28;8860;-62
2022/01/26 09:17:55;;;;;;;;;19.00;12.20;;;;;2.83;82.95;101435.91;5097488;28;8874;-61
2022/01/26 09:20:22;;;;;;;;;34.00;29.00;;;;;2.82;83.04;101430.69;5093510;28;9269;-63
2022/01/26 09:22:50;;;;;;;;;20.20;16.80;;;;;2.81;82.99;101427.16;5092582;28;8866;-63
2022/01/26 09:25:18;;;;;;;;;22.20;21.20;;;;;2.80;83.06;101425.44;5096854;28;8878;-62
2022/01/26 09:27:46;;;;;;;;;26.20;21.60;;;;;2.81;82.62;101421.91;5089219;28;9532;-64
2022/01/26 09:30:13;;;;;;;;;20.00;16.20;;;;;2.81;82.49;101415.81;5094324;28;8863;-61
2022/01/26 09:32:41;;;;;;;;;38.80;32.40;;;;;2.78;82.79;101419.38;5091338;28;9038;-62
2022/01/26 09:35:09;;;;;;;;;35.80;28.80;;;;;2.76;82.87;101423.81;5092207;28;8848;-61
2022/01/26 09:37:37;;;;;;;;;24.00;20.00;;;;;2.75;82.73;101423.84;5092382;28;9083;-61
2022/01/26 09:40:04;;;;;;;;;28.20;24.40;;;;;2.73;82.54;101429.13;5091811;28;8857;-64
2022/01/26 09:42:34;;;;;;;;;28.40;20.00;;;;;2.72;83.03;101416.88;5092472;28;8899;-63
2022/01/26 09:45:02;;;;;;;;;21.60;19.00;;;;;2.72;82.86;101422.13;5094577;28;9155;-64
2022/01/26 09:47:29;;;;;;;;;23.80;20.20;;;;;2.71;82.81;101420.41;5093848;28;9198;-63
2022/01/26 09:50:17;;;;;;;;;23.60;17.20;;;;;2.72;83.05;101421.28;5092943;28;8874;-63
2022/01/26 09:52:48;;;;;;;;;37.00;29.00;;;;;2.71;82.99;101420.41;5091795;28;9218;-62
2022/01/26 09:55:16;;;;;;;;;27.60;20.60;;;;;2.70;82.87;101412.56;5093007;28;8894;-62
2022/01/26 09:57:44;;;;;;;;;25.20;21.60;;;;;2.68;82.93;101409.09;5096208;28;8891;-62
2022/01/26 10:00:12;;;;;;;;;28.80;21.80;;;;;2.69;82.43;101400.31;5093986;28;9014;-62
2022/01/26 10:02:43;;;;;;;;;28.60;24.00;;;;;2.69;82.54;101395.06;5093641;28;8840;-66
2022/01/26 10:05:12;;;;;;;;;24.40;24.00;;;;;2.66;82.97;101389.88;5092756;28;8879;-61
2022/01/26 10:07:48;;;;;;;;;26.60;23.20;;;;;2.65;82.60;101389.00;5093561;28;9097;-62
2022/01/26 10:15:56;;;;;;;;;29.00;26.40;;;;;2.63;83.17;101400.44;5091212;28;9134;-62
2022/01/26 10:18:24;;;;;;;;;12.80;12.00;;;;;2.63;83.30;101393.44;5092034;28;8856;-63
2022/01/26 10:20:51;;;;;;;;;29.60;25.80;;;;;2.66;82.75;101397.75;5091929;28;8878;-62
2022/01/26 10:23:19;;;;;;;;;16.80;16.40;;;;;2.67;83.17;101400.38;5090178;28;8886;-63
2022/01/26 10:25:47;;;;;;;;;27.80;22.40;;;;;2.68;83.06;101394.22;5090363;28;9105;-64
2022/01/26 10:28:15;;;;;;;;;19.40;18.40;;;;;2.72;82.86;101390.59;5091966;28;8864;-63
2022/01/26 10:30:44;;;;;;;;;17.20;11.40;;;;;2.77;83.28;101391.34;5095375;28;9164;-64
2022/01/26 10:33:12;;;;;;;;;23.80;21.00;;;;;2.83;83.45;101393.81;5086796;28;9804;-63
2022/01/26 10:35:40;;;;;;;;;27.60;23.80;;;;;2.88;83.08;101396.34;5090890;28;8917;-62
2022/01/26 10:38:08;;;;;;;;;26.40;21.80;;;;;2.92;82.94;101406.75;5095765;28;8954;-61
2022/01/26 10:40:35;;;;;;;;;18.20;16.20;;;;;2.95;82.91;101403.16;5092364;28;8855;-64
2022/01/26 10:43:06;;;;;;;;;25.20;22.20;;;;;2.99;82.76;101416.22;5094569;28;8993;-63
2022/01/26 10:45:47;;;;;;;;;21.00;17.80;;;;;3.03;82.35;101420.47;5092130;28;8863;-61
2022/01/26 10:48:27;;;;;;;;;13.60;12.40;;;;;3.08;82.80;101426.50;5092388;28;8870;-62
2022/01/26 10:53:51;;;;;;;;;17.60;17.60;;;;;3.15;82.36;101395.59;5050017;28;9118;-61
2022/01/26 10:56:19;;;;;;;;;14.40;9.60;;;;;3.17;82.63;101396.47;5082536;28;9902;-62
2022/01/26 10:58:47;;;;;;;;;6.40;3.80;;;;;3.18;82.61;101380.59;5094504;28;9187;-61
2022/01/26 11:01:14;;;;;;;;;19.80;15.80;;;;;3.19;81.88;101395.47;5093277;28;8863;-61
2022/01/26 11:03:42;;;;;;;;;34.00;28.40;;;;;3.22;82.38;101408.59;5090698;28;8870;-61
2022/01/26 11:06:10;;;;;;;;;17.40;12.60;;;;;3.24;81.99;101406.75;5089635;28;8975;-63
2022/01/26 11:08:38;;;;;;;;;15.80;10.00;;;;;3.27;81.96;101401.41;5088820;28;8974;-64
2022/01/26 11:11:06;;;;;;;;;24.40;21.40;;;;;3.31;82.67;101403.06;5090797;28;8851;-64
2022/01/26 11:13:34;;;;;;;;;19.00;17.00;;;;;3.34;82.69;101397.72;5090432;28;8878;-63
2022/01/26 11:16:01;;;;;;;;;28.60;21.00;;;;;3.36;81.89;101401.19;5090535;28;9669;-63
2022/01/26 11:18:33;;;;;;;;;22.20;19.20;;;;;3.39;82.73;101416.88;5092172;28;8859;-62
2022/01/26 11:21:01;;;;;;;;;26.00;18.00;;;;;3.43;82.59;101429.06;5089640;28;8847;-64
2022/01/26 11:23:28;;;;;;;;;18.80;15.20;;;;;3.47;82.11;101433.34;5095588;28;8844;-61
2022/01/26 11:25:56;;;;;;;;;20.00;15.40;;;;;3.51;82.37;101442.00;5095260;28;8851;-62
2022/01/26 11:28:24;;;;;;;;;19.80;18.60;;;;;3.50;82.18;101435.91;5098188;28;8868;-64
2022/01/26 11:30:52;;;;;;;;;26.80;20.60;;;;;3.51;82.31;101431.47;5096543;28;9283;-64
2022/01/26 11:33:20;;;;;;;;;26.80;20.80;;;;;3.51;81.82;101421.84;5096158;28;9012;-64
2022/01/26 11:35:48;;;;;;;;;14.60;12.20;;;;;3.52;81.88;101418.28;5095026;28;8844;-63
2022/01/26 11:38:29;;;;;;;;;14.60;13.60;;;;;3.51;82.34;101413.06;5098850;28;8847;-63
2022/01/26 11:46:23;;;;;;;;;21.00;15.00;;;;;3.53;82.00;101403.34;5098314;28;9006;-63
2022/01/26 11:48:52;;;;;;;;;25.80;19.40;;;;;3.53;82.17;101404.22;5095914;28;8991;-64
2022/01/26 11:51:20;;;;;;;;;18.00;15.80;;;;;3.54;82.06;101415.63;5078820;28;8843;-63
2022/01/26 11:53:48;;;;;;;;;11.60;9.40;;;;;3.56;82.06;101409.38;5081565;28;8949;-64
2022/01/26 11:56:23;;;;;;;;;10.60;9.40;;;;;3.58;82.51;101401.44;5080874;28;9097;-61
2022/01/26 11:58:53;;;;;;;;;21.40;19.40;;;;;3.57;82.47;101395.31;5077634;28;8938;-63
2022/01/26 12:01:25;;;;;;;;;24.80;15.20;;;;;3.56;82.29;101403.28;5076174;28;9571;-63
2022/01/26 12:03:54;;;;;;;;;20.40;17.80;;;;;3.54;82.35;101397.19;5073670;28;8851;-64
2022/01/26 12:06:22;;;;;;;;;19.00;17.20;;;;;3.52;82.71;101407.75;5072088;28;9214;-64
2022/01/26 12:08:50;;;;;;;;;19.80;16.60;;;;;3.51;81.99;101413.06;5070790;28;8847;-65
2022/01/26 12:11:18;;;;;;;;;9.40;8.20;;;;;3.50;82.87;101406.06;5075662;28;8958;-61
2022/01/26 12:13:50;;;;;;;;;16.40;14.20;;;;;3.49;82.43;101405.19;5079255;28;8839;-63
2022/01/26 12:16:21;;;;;;;;;22.60;20.60;;;;;3.48;82.66;101403.47;5073695;28;8836;-64
2022/01/26 12:18:54;;;;;;;;;18.00;15.20;;;;;3.49;83.08;101413.09;5077093;28;8937;-63
2022/01/26 12:35:32;;;;;;;;;21.80;20.20;;;;;3.38;82.50;101373.03;5075078;28;8864;-64
2022/01/26 12:38:04;;;;;;;;;26.20;22.20;;;;;3.37;82.80;101370.44;5074931;28;9343;-64
2022/01/26 12:43:14;;;;;;;;;7.40;6.00;;;;;3.35;83.33;101354.72;5071174;28;8874;-64
2022/01/26 12:45:56;;;;;;;;;25.80;20.80;;;;;3.40;82.89;101360.69;5075553;28;8863;-63
2022/01/26 12:48:24;;;;;;;;;25.80;18.20;;;;;3.42;83.40;101340.44;5074655;28;8859;-63
2022/01/26 12:50:52;;;;;;;;;21.00;19.20;;;;;3.44;83.30;101333.38;5075213;28;8831;-61
2022/01/26 12:53:20;;;;;;;;;17.40;12.20;;;;;3.46;83.10;101328.06;5072719;28;9320;-63
2022/01/26 12:55:47;;;;;;;;;15.60;13.00;;;;;3.46;83.12;101328.94;5073701;28;8963;-64
2022/01/26 12:58:15;;;;;;;;;18.20;16.40;;;;;3.45;82.67;101336.88;5073812;28;8985;-61
2022/01/26 13:00:43;;;;;;;;;24.80;15.40;;;;;3.45;82.73;101337.75;5073847;28;9010;-62
2022/01/26 13:03:11;;;;;;;;;13.60;10.20;;;;;3.47;83.52;101319.28;5073182;28;8964;-64
2022/01/26 13:05:40;;;;;;;;;17.00;12.40;;;;;3.47;82.85;101325.41;5072224;28;8865;-64
2022/01/26 13:08:08;;;;;;;;;16.80;16.00;;;;;3.47;83.26;101325.41;5075147;28;8984;-64
2022/01/26 13:10:36;;;;;;;;;14.00;12.40;;;;;3.49;82.92;101328.84;5076216;28;8984;-64
2022/01/26 13:13:04;;;;;;;;;19.00;17.20;;;;;3.51;83.16;101334.06;5074388;28;8988;-64
2022/01/26 13:15:38;;;;;;;;;16.80;15.40;;;;;3.51;83.15;101328.81;5074848;28;8873;-63
2022/01/26 13:18:15;;;;;;;;;23.40;20.40;;;;;3.51;82.95;101337.56;5076727;28;8968;-64
2022/01/26 13:20:58;;;;;;;;;18.20;14.20;;;;;3.51;83.09;101334.94;5075039;28;8846;-64